タシュケント の空港の天気 - METARとTAF

タシケント空港 ( UTTT / TAS ) - ウズベキスタン タシュケント
飛行場実況気象(Metar)
観測時間10/01 19:30 UZT (10/01 14:30 UTC)
風向・風速北 4m/s
視程10km以上
天気現象
なし
気温19℃
湿度35%
気圧1019hPa
METARUTTT 011430Z 35008KT 320V040 CAVOK 19/03 Q1019 R08R/CLRD70 NOSIG
過去の天気等 Google飛行場航空写真 Wunderground天気予報

過去48時間のMETAR

飛行場予報(TAF)
発表時間: 10/01 16:00 UZT (10/01 11:00 UTC)
予報対象時間: 1日17時 UZT ~ 2日17時 UZT
風向・風速北東 5m/s
視程7000m
なし
1日17時 UZT ~ 1日23時 UZT に一時的に
風向・風速北北西 8m/s
TAF UTTT 011100Z 0112/0212 04010KT 7000 NSC
TEMPO 0112/0118 33015KT